Time;durP1;ratioP1;P1;durP2;ratioP2;P2;SDS_P1;SDS_P2;PMS_P1;PMS_P2;Temp;Humidity;BMP_temperature;BMP_pressure;BME280_temperature;BME280_humidity;BME280_pressure;Samples;Min_cycle;Max_cycle;Signal;HPM_P1;HPM_P2
2020/12/15 00:00:46;;;;;;;13.80;11.90;;;28.40;87.90;;;;;;5065356;28;21897;-56
2020/12/15 00:03:18;;;;;;;13.55;10.93;;;28.40;88.00;;;;;;5061500;28;20692;-56
2020/12/15 00:05:49;;;;;;;12.77;10.90;;;28.50;88.20;;;;;;5070098;28;20267;-55
2020/12/15 00:08:19;;;;;;;10.57;9.57;;;28.50;88.20;;;;;;5070789;28;20312;-58
2020/12/15 00:10:50;;;;;;;11.35;10.25;;;28.50;88.30;;;;;;5067601;28;20283;-56
2020/12/15 00:13:20;;;;;;;10.30;9.27;;;28.50;88.30;;;;;;5065024;28;20264;-56
2020/12/15 00:15:51;;;;;;;10.80;9.80;;;28.60;88.40;;;;;;5065581;28;20252;-58
2020/12/15 00:18:23;;;;;;;10.13;9.23;;;28.50;88.40;;;;;;5061153;28;20282;-55
2020/12/15 00:20:53;;;;;;;11.32;10.23;;;28.60;88.70;;;;;;5065900;28;20227;-53
2020/12/15 00:23:24;;;;;;;10.20;9.30;;;28.60;88.70;;;;;;5059765;28;20229;-55
2020/12/15 00:25:54;;;;;;;11.48;10.45;;;28.60;88.90;;;;;;5022415;28;20226;-54
2020/12/15 00:28:25;;;;;;;13.82;12.45;;;28.60;88.90;;;;;;5026199;28;20372;-56
2020/12/15 00:30:57;;;;;;;13.65;12.48;;;28.70;88.80;;;;;;5023007;28;20226;-57
2020/12/15 00:33:29;;;;;;;15.48;13.88;;;28.70;88.80;;;;;;5020840;28;20255;-55
2020/12/15 00:35:59;;;;;;;14.60;13.07;;;28.80;88.50;;;;;;5022723;28;20313;-55
2020/12/15 00:38:31;;;;;;;15.45;13.90;;;28.80;88.40;;;;;;5018472;28;20230;-55
2020/12/15 00:41:02;;;;;;;13.82;12.18;;;28.90;88.40;;;;;;5023201;28;20226;-55
2020/12/15 00:43:32;;;;;;;13.18;11.98;;;28.90;88.20;;;;;;5027388;28;20824;-56
2020/12/15 00:46:03;;;;;;;14.15;12.45;;;29.00;87.70;;;;;;4960796;28;20700;-57
2020/12/15 00:48:35;;;;;;;12.70;11.35;;;29.00;87.30;;;;;;4965706;28;20320;-55
2020/12/15 00:51:05;;;;;;;14.30;12.38;;;29.10;86.90;;;;;;4960932;28;20236;-55
2020/12/15 00:53:36;;;;;;;13.48;12.18;;;29.20;86.70;;;;;;4958867;28;20650;-56
2020/12/15 00:56:07;;;;;;;13.60;12.30;;;29.20;86.80;;;;;;4972636;28;20608;-58
2020/12/15 00:58:38;;;;;;;14.93;13.68;;;29.30;87.00;;;;;;5021250;28;20875;-55
2020/12/15 01:01:10;;;;;;;15.60;14.18;;;29.40;87.10;;;;;;5017513;28;20234;-54
2020/12/15 01:03:42;;;;;;;16.10;14.52;;;29.40;87.00;;;;;;5025980;28;20243;-55
2020/12/15 01:06:13;;;;;;;15.70;14.20;;;29.50;87.00;;;;;;5011918;28;20306;-56
2020/12/15 01:08:43;;;;;;;15.85;14.43;;;29.60;86.90;;;;;;5017460;28;20617;-55
2020/12/15 01:11:20;;;;;;;15.05;13.65;;;29.60;86.80;;;;;;5021598;28;20226;-53
2020/12/15 01:13:51;;;;;;;14.82;13.43;;;29.70;87.00;;;;;;5024132;28;20241;-58
2020/12/15 01:16:22;;;;;;;13.38;12.18;;;29.70;86.70;;;;;;5028066;28;20270;-56
2020/12/15 01:18:54;;;;;;;13.90;12.60;;;29.80;86.50;;;;;;5064386;28;20221;-54
2020/12/15 01:21:28;;;;;;;13.63;12.23;;;29.80;85.40;;;;;;5060315;28;20714;-58
2020/12/15 01:23:58;;;;;;;14.75;13.02;;;29.90;84.80;;;;;;5060895;28;20688;-57
2020/12/15 01:26:29;;;;;;;13.82;12.40;;;30.00;84.60;;;;;;5064899;28;20237;-54
2020/12/15 01:29:00;;;;;;;13.93;12.52;;;30.00;84.60;;;;;;5067177;28;20240;-54
2020/12/15 01:31:31;;;;;;;12.98;11.70;;;30.00;83.90;;;;;;5067051;28;20329;-57
2020/12/15 01:34:03;;;;;;;12.93;11.45;;;30.10;84.30;;;;;;5056277;28;20236;-57
2020/12/15 01:36:34;;;;;;;11.77;10.68;;;30.10;83.70;;;;;;5069342;28;20229;-58
2020/12/15 01:39:04;;;;;;;11.60;10.40;;;30.20;83.20;;;;;;5063615;28;20244;-56
2020/12/15 01:41:35;;;;;;;10.68;9.63;;;30.30;83.20;;;;;;5065380;28;20312;-58
2020/12/15 01:44:05;;;;;;;10.63;9.52;;;30.30;83.30;;;;;;5065694;28;20233;-57
2020/12/15 01:46:35;;;;;;;10.48;9.48;;;30.40;81.90;;;;;;5057299;28;20229;-54
2020/12/15 01:49:08;;;;;;;9.73;8.75;;;30.50;81.70;;;;;;5064815;28;20240;-57
2020/12/15 01:51:38;;;;;;;9.90;8.90;;;30.60;80.70;;;;;;5055946;28;20225;-54
2020/12/15 01:54:09;;;;;;;9.98;9.02;;;30.60;80.20;;;;;;5062622;28;20232;-54
2020/12/15 01:56:41;;;;;;;10.10;9.10;;;30.70;80.20;;;;;;5058934;28;20238;-58
2020/12/15 01:59:12;;;;;;;12.40;9.45;;;30.80;79.80;;;;;;5064975;28;20345;-58
2020/12/15 02:01:48;;;;;;;9.52;8.63;;;30.90;79.70;;;;;;5061709;28;20282;-58
2020/12/15 02:04:20;;;;;;;9.48;8.60;;;31.00;79.20;;;;;;5058371;28;20273;-58
2020/12/15 02:06:50;;;;;;;10.70;8.50;;;31.10;79.00;;;;;;5058412;28;20241;-55
2020/12/15 02:09:21;;;;;;;8.65;7.85;;;31.10;78.90;;;;;;5050695;28;20287;-55
2020/12/15 02:11:52;;;;;;;9.25;8.45;;;31.20;78.60;;;;;;5058590;28;20241;-56
2020/12/15 02:14:23;;;;;;;8.38;7.57;;;31.30;77.50;;;;;;5050507;28;20237;-55
2020/12/15 02:16:54;;;;;;;7.68;6.97;;;31.40;77.60;;;;;;5060893;28;20238;-54
2020/12/15 02:19:26;;;;;;;8.32;7.55;;;31.40;77.10;;;;;;5064996;28;20930;-56
2020/12/15 02:22:00;;;;;;;8.88;7.55;;;31.60;76.30;;;;;;5057070;28;20234;-55
2020/12/15 02:24:31;;;;;;;8.65;7.60;;;31.60;75.70;;;;;;5061907;28;20261;-57
2020/12/15 02:27:02;;;;;;;9.05;8.20;;;31.70;75.20;;;;;;5057846;28;20701;-55
2020/12/15 02:29:32;;;;;;;9.10;8.18;;;31.70;74.40;;;;;;5067034;28;20310;-57
2020/12/15 02:32:03;;;;;;;8.55;7.82;;;31.80;74.60;;;;;;5065167;28;20232;-55
2020/12/15 02:34:33;;;;;;;8.50;7.70;;;31.80;74.50;;;;;;5064935;28;20229;-54
2020/12/15 02:37:10;;;;;;;8.65;7.82;;;31.90;74.00;;;;;;5060624;28;20286;-53
2020/12/15 02:39:42;;;;;;;8.35;7.55;;;32.00;73.20;;;;;;5062556;28;20749;-54
2020/12/15 02:42:12;;;;;;;8.32;7.53;;;32.10;73.90;;;;;;5065634;28;20225;-53
2020/12/15 02:44:43;;;;;;;8.07;7.38;;;32.10;73.00;;;;;;5059909;28;20575;-57
2020/12/15 02:47:13;;;;;;;8.43;7.40;;;32.20;73.20;;;;;;5058090;28;20236;-55
2020/12/15 02:49:44;;;;;;;7.65;6.95;;;32.30;73.20;;;;;;5058355;28;20228;-57
2020/12/15 02:52:16;;;;;;;8.65;7.20;;;32.30;72.40;;;;;;5060910;28;20221;-55
2020/12/15 02:54:46;;;;;;;8.55;7.70;;;32.40;71.30;;;;;;5059635;28;20260;-55
2020/12/15 02:57:17;;;;;;;7.93;7.13;;;32.40;70.60;;;;;;5061545;28;20236;-56
2020/12/15 02:59:47;;;;;;;10.70;7.55;;;32.50;70.60;;;;;;5068084;28;20255;-54
2020/12/15 03:02:20;;;;;;;8.82;7.93;;;32.50;70.90;;;;;;5062540;28;20320;-56
2020/12/15 03:04:50;;;;;;;8.38;7.57;;;32.60;69.70;;;;;;5061250;28;20232;-54
2020/12/15 03:07:22;;;;;;;8.80;7.97;;;32.70;69.40;;;;;;5064840;28;20324;-55
2020/12/15 03:09:53;;;;;;;8.55;7.78;;;32.80;69.40;;;;;;5059971;28;20249;-52
2020/12/15 03:12:23;;;;;;;10.38;8.10;;;32.80;69.30;;;;;;5067689;28;20225;-56
2020/12/15 03:14:54;;;;;;;9.25;8.23;;;32.90;69.40;;;;;;5060860;28;20320;-55
2020/12/15 03:17:25;;;;;;;11.25;8.32;;;32.90;69.30;;;;;;5062603;28;20235;-55
2020/12/15 03:19:56;;;;;;;8.30;7.53;;;33.00;69.30;;;;;;5058889;28;20364;-55
2020/12/15 03:22:27;;;;;;;8.98;7.72;;;33.10;68.50;;;;;;5059478;28;20229;-56
2020/12/15 03:24:58;;;;;;;9.20;7.45;;;33.10;67.90;;;;;;5057526;28;20229;-52
2020/12/15 03:27:28;;;;;;;8.27;7.47;;;33.20;67.90;;;;;;5061902;28;20239;-56
2020/12/15 03:29:59;;;;;;;7.65;6.95;;;33.20;67.80;;;;;;5060497;28;20299;-55
2020/12/15 03:32:31;;;;;;;8.13;7.35;;;33.30;68.00;;;;;;5065136;28;20236;-52
2020/12/15 03:35:02;;;;;;;7.80;7.10;;;33.30;68.30;;;;;;5065141;28;20225;-57
2020/12/15 03:37:33;;;;;;;7.57;6.93;;;33.40;68.40;;;;;;5064628;28;20237;-55
2020/12/15 03:40:04;;;;;;;9.60;8.13;;;33.40;68.30;;;;;;5064787;28;20231;-53
2020/12/15 03:42:34;;;;;;;8.20;7.40;;;33.50;68.00;;;;;;5064274;28;20231;-56
2020/12/15 03:45:05;;;;;;;8.63;7.82;;;33.60;67.90;;;;;;5065107;28;20610;-54
2020/12/15 03:47:36;;;;;;;8.70;7.90;;;33.60;67.80;;;;;;5068163;28;20233;-54
2020/12/15 03:50:09;;;;;;;9.57;8.65;;;33.70;67.80;;;;;;5064370;28;20274;-56
2020/12/15 03:52:41;;;;;;;10.05;9.05;;;33.80;67.10;;;;;;5065256;28;20229;-58
2020/12/15 03:55:11;;;;;;;10.05;9.15;;;33.90;67.00;;;;;;5070689;28;20659;-57
2020/12/15 03:57:41;;;;;;;8.75;7.95;;;34.00;67.00;;;;;;5064522;28;20322;-54
2020/12/15 04:00:12;;;;;;;7.68;6.90;;;34.00;67.10;;;;;;5065462;28;20315;-55
2020/12/15 04:02:43;;;;;;;9.15;7.50;;;34.10;66.80;;;;;;5067326;28;20312;-56
2020/12/15 04:05:14;;;;;;;7.10;6.43;;;34.20;66.00;;;;;;5061781;28;20581;-56
2020/12/15 04:07:46;;;;;;;6.30;5.72;;;34.30;66.10;;;;;;5066747;28;20687;-55
2020/12/15 04:10:18;;;;;;;6.28;5.68;;;34.30;65.30;;;;;;5063659;28;20232;-54
2020/12/15 04:12:54;;;;;;;6.00;5.40;;;34.40;65.60;;;;;;5062914;28;20232;-55
2020/12/15 04:15:24;;;;;;;5.85;5.25;;;34.50;65.20;;;;;;5066120;28;20232;-56
2020/12/15 04:17:55;;;;;;;5.57;5.07;;;34.60;65.30;;;;;;5062041;28;20671;-56
2020/12/15 04:20:26;;;;;;;5.38;4.90;;;34.60;64.90;;;;;;5061424;28;20579;-57
2020/12/15 04:22:57;;;;;;;5.45;4.93;;;34.60;65.00;;;;;;5064566;28;20225;-56
2020/12/15 04:25:28;;;;;;;5.70;5.20;;;34.70;65.10;;;;;;5065727;28;20229;-57
2020/12/15 04:27:59;;;;;;;5.60;5.10;;;34.70;64.90;;;;;;5064697;28;20707;-56
2020/12/15 04:30:29;;;;;;;5.50;4.93;;;34.70;64.20;;;;;;5062441;28;20237;-53
2020/12/15 04:33:00;;;;;;;5.90;5.38;;;34.80;64.40;;;;;;5060867;28;20234;-55
2020/12/15 04:35:31;;;;;;;5.85;5.28;;;34.80;64.20;;;;;;5064485;28;20237;-54
2020/12/15 04:38:02;;;;;;;5.63;5.13;;;34.80;64.80;;;;;;5056838;28;20287;-53
2020/12/15 04:40:34;;;;;;;5.82;4.65;;;34.90;63.60;;;;;;5062306;28;20229;-52
2020/12/15 04:43:11;;;;;;;5.55;5.05;;;34.90;63.90;;;;;;5068262;28;20711;-53
2020/12/15 04:45:41;;;;;;;4.88;4.47;;;35.00;63.60;;;;;;5067292;28;20229;-57
2020/12/15 04:48:13;;;;;;;6.18;5.57;;;35.00;63.60;;;;;;5065328;28;20230;-57
2020/12/15 04:50:44;;;;;;;5.50;5.00;;;35.00;63.00;;;;;;5038716;28;21177;-57
2020/12/15 04:53:17;;;;;;;5.45;4.85;;;35.10;63.00;;;;;;5043133;28;20246;-55
2020/12/15 04:55:48;;;;;;;5.30;4.57;;;35.10;62.50;;;;;;5038659;28;20227;-57
2020/12/15 04:58:20;;;;;;;4.90;4.55;;;35.20;62.90;;;;;;5038195;28;20230;-54
2020/12/15 05:00:50;;;;;;;4.60;4.20;;;35.20;62.90;;;;;;5044311;28;20225;-54
2020/12/15 05:03:22;;;;;;;4.22;3.90;;;35.20;63.40;;;;;;4981095;28;20291;-52
2020/12/15 05:05:55;;;;;;;4.88;4.38;;;35.30;63.10;;;;;;4979597;28;20234;-55
2020/12/15 05:08:27;;;;;;;4.57;4.18;;;35.30;62.50;;;;;;4969858;28;20232;-52
2020/12/15 05:10:58;;;;;;;4.85;4.45;;;35.40;62.40;;;;;;4970502;28;20221;-56
2020/12/15 05:13:28;;;;;;;4.32;3.75;;;35.50;62.60;;;;;;4972032;28;20247;-53
2020/12/15 05:15:59;;;;;;;4.95;4.50;;;35.60;63.20;;;;;;4969383;28;20233;-51
2020/12/15 05:18:30;;;;;;;5.72;4.53;;;35.70;63.20;;;;;;4979205;28;20228;-52
2020/12/15 05:21:01;;;;;;;4.40;4.03;;;35.70;62.90;;;;;;4973890;28;20235;-53
2020/12/15 05:23:33;;;;;;;5.75;3.65;;;35.80;63.20;;;;;;4952307;28;20233;-52
2020/12/15 05:26:06;;;;;;;4.57;3.92;;;35.90;62.80;;;;;;4926194;29;20735;-55
2020/12/15 05:28:37;;;;;;;3.90;3.60;;;36.10;62.70;;;;;;4926846;29;20603;-57
2020/12/15 05:31:08;;;;;;;3.95;3.55;;;36.10;63.20;;;;;;4927236;28;20764;-55
2020/12/15 05:33:39;;;;;;;4.47;4.07;;;36.30;62.00;;;;;;4931930;28;20635;-53
2020/12/15 05:36:21;;;;;;;4.03;3.72;;;36.40;61.30;;;;;;4950307;28;23109;-55
2020/12/15 05:39:07;;;;;;;3.92;3.63;;;36.50;60.60;;;;;;4956452;28;20315;-54
2020/12/15 05:41:37;;;;;;;4.22;3.83;;;36.60;60.30;;;;;;4965409;28;20314;-57
2020/12/15 05:44:08;;;;;;;4.63;3.63;;;36.60;59.80;;;;;;4952338;28;20237;-55
2020/12/15 05:46:38;;;;;;;3.92;3.63;;;36.70;59.50;;;;;;4946923;28;20585;-55
2020/12/15 05:49:09;;;;;;;4.13;3.72;;;36.70;58.80;;;;;;4947570;28;20240;-52
2020/12/15 05:51:41;;;;;;;3.95;3.65;;;36.80;58.70;;;;;;4958717;28;20683;-57
2020/12/15 05:54:13;;;;;;;3.70;3.40;;;36.80;59.30;;;;;;4976475;28;20614;-56
2020/12/15 05:56:43;;;;;;;4.15;3.35;;;36.90;59.50;;;;;;5018496;28;20830;-56
2020/12/15 05:59:20;;;;;;;3.50;3.20;;;36.90;59.20;;;;;;5040220;28;20231;-57
2020/12/15 06:01:51;;;;;;;4.60;2.90;;;37.00;59.00;;;;;;5040024;28;20243;-55
2020/12/15 06:04:22;;;;;;;3.83;3.05;;;37.00;58.80;;;;;;5035277;28;20260;-54
2020/12/15 06:06:53;;;;;;;3.53;3.22;;;37.10;58.60;;;;;;5042826;28;20246;-56
2020/12/15 06:09:26;;;;;;;4.47;3.38;;;37.10;58.20;;;;;;5044206;28;20222;-55
2020/12/15 06:11:57;;;;;;;3.90;3.55;;;37.20;58.00;;;;;;5021781;28;20391;-52
2020/12/15 06:14:28;;;;;;;3.38;2.97;;;37.20;58.00;;;;;;5020795;28;20305;-56
2020/12/15 06:16:59;;;;;;;3.40;3.10;;;37.20;57.90;;;;;;5022042;28;20246;-52
2020/12/15 06:19:32;;;;;;;3.40;3.20;;;37.20;57.60;;;;;;5021171;28;20296;-50
2020/12/15 06:22:03;;;;;;;4.13;3.72;;;37.30;57.40;;;;;;5021677;28;20288;-56
2020/12/15 06:24:39;;;;;;;3.92;3.53;;;37.30;57.00;;;;;;5026634;28;20292;-57
2020/12/15 06:27:11;;;;;;;5.40;3.33;;;37.30;57.00;;;;;;5025530;28;20321;-56
2020/12/15 06:29:42;;;;;;;3.25;3.05;;;37.30;57.50;;;;;;5020193;28;20230;-55
2020/12/15 06:32:18;;;;;;;4.13;3.42;;;37.30;58.00;;;;;;5023059;28;20295;-57
2020/12/15 06:34:50;;;;;;;3.70;3.40;;;37.30;57.20;;;;;;5008178;28;20235;-54
2020/12/15 06:37:20;;;;;;;4.18;3.13;;;37.30;57.50;;;;;;5016071;28;20724;-55
2020/12/15 06:39:56;;;;;;;3.95;3.20;;;37.30;57.00;;;;;;5022335;28;20244;-54
2020/12/15 06:42:27;;;;;;;4.38;3.40;;;37.30;56.70;;;;;;5033862;28;20639;-57
2020/12/15 06:45:04;;;;;;;3.95;3.10;;;37.30;57.20;;;;;;5048865;28;20693;-53
2020/12/15 06:47:35;;;;;;;3.60;3.30;;;37.30;57.20;;;;;;5046669;28;20225;-54
2020/12/15 06:50:13;;;;;;;3.70;3.40;;;37.30;57.40;;;;;;5036408;28;20234;-54
2020/12/15 06:52:44;;;;;;;3.35;3.05;;;37.30;57.40;;;;;;5032837;28;20336;-54
2020/12/15 06:55:15;;;;;;;8.70;7.90;;;37.40;57.70;;;;;;5046834;28;20232;-55
2020/12/15 06:57:45;;;;;;;18.42;16.75;;;37.40;58.00;;;;;;5038272;28;20272;-67
2020/12/15 07:00:16;;;;;;;21.45;19.45;;;37.40;58.10;;;;;;4996170;28;20749;-55
2020/12/15 07:02:52;;;;;;;15.82;14.45;;;37.40;57.90;;;;;;4997344;28;20227;-55
2020/12/15 07:05:26;;;;;;;18.38;16.63;;;37.30;57.90;;;;;;5001962;28;20715;-55
2020/12/15 07:07:57;;;;;;;12.57;11.43;;;37.20;58.30;;;;;;5005848;28;20238;-54
2020/12/15 07:10:30;;;;;;;11.98;10.77;;;37.10;57.90;;;;;;5001999;28;20237;-55
2020/12/15 07:13:00;;;;;;;12.40;11.30;;;37.00;57.10;;;;;;4996363;28;20262;-52
2020/12/15 07:15:31;;;;;;;14.93;13.73;;;36.90;57.50;;;;;;5000605;28;20235;-54
2020/12/15 07:18:02;;;;;;;12.85;11.75;;;36.90;57.80;;;;;;5001624;28;20231;-52
2020/12/15 07:20:33;;;;;;;11.85;10.85;;;36.80;57.70;;;;;;4965441;28;20256;-55
2020/12/15 07:23:04;;;;;;;16.20;14.60;;;36.70;57.70;;;;;;4965834;28;20228;-57
2020/12/15 07:25:35;;;;;;;15.82;14.13;;;36.70;57.40;;;;;;4964199;28;20236;-55
2020/12/15 07:28:07;;;;;;;17.13;15.27;;;36.60;57.60;;;;;;4972020;28;20609;-56
2020/12/15 07:30:39;;;;;;;15.50;13.88;;;36.50;57.80;;;;;;4993056;28;20304;-53
2020/12/15 07:33:16;;;;;;;15.65;14.25;;;36.20;58.20;;;;;;5022091;28;20284;-57
2020/12/15 07:35:46;;;;;;;14.30;12.90;;;36.20;58.50;;;;;;4962693;28;20315;-57
2020/12/15 07:38:17;;;;;;;13.85;12.65;;;36.00;59.00;;;;;;4962369;28;20320;-56
2020/12/15 07:40:49;;;;;;;15.25;13.80;;;36.00;59.60;;;;;;4964777;28;20323;-54
2020/12/15 07:43:19;;;;;;;15.00;13.70;;;35.90;59.50;;;;;;4963096;28;20228;-56
2020/12/15 07:45:52;;;;;;;16.98;15.50;;;35.80;59.70;;;;;;4963655;28;20319;-54
2020/12/15 07:48:24;;;;;;;16.20;14.68;;;35.80;60.00;;;;;;4958607;28;21374;-54
2020/12/15 07:50:54;;;;;;;15.77;14.15;;;35.80;59.90;;;;;;4940388;28;20564;-53
2020/12/15 07:53:25;;;;;;;16.25;14.75;;;35.70;60.20;;;;;;4963414;28;20229;-54
2020/12/15 07:56:05;;;;;;;17.67;16.17;;;35.70;60.90;;;;;;4965688;28;20228;-55
2020/12/15 07:58:36;;;;;;;18.08;16.58;;;35.60;60.90;;;;;;4972818;28;20251;-56
2020/12/15 08:01:07;;;;;;;22.38;20.20;;;35.60;61.00;;;;;;4981105;28;20327;-53
2020/12/15 08:03:37;;;;;;;19.48;17.85;;;35.60;60.70;;;;;;4968088;28;20260;-63
2020/12/15 08:06:11;;;;;;;18.70;16.85;;;35.60;60.90;;;;;;4967419;28;20688;-55
2020/12/15 08:08:42;;;;;;;17.55;15.98;;;35.60;60.90;;;;;;4984203;28;20298;-57
2020/12/15 08:11:19;;;;;;;15.70;14.23;;;35.60;60.90;;;;;;4984214;28;20244;-58
2020/12/15 08:13:51;;;;;;;28.50;25.70;;;35.50;61.10;;;;;;4990405;28;20242;-56
2020/12/15 08:16:21;;;;;;;17.48;15.13;;;35.50;60.60;;;;;;4992697;28;20306;-55
2020/12/15 08:18:57;;;;;;;13.90;12.63;;;35.50;61.80;;;;;;4996885;28;20299;-54
2020/12/15 08:21:38;;;;;;;11.88;10.52;;;35.40;62.90;;;;;;4905488;28;20758;-56
2020/12/15 08:24:10;;;;;;;10.25;9.35;;;35.40;63.50;;;;;;4948682;28;20259;-57
2020/12/15 08:26:42;;;;;;;9.93;8.55;;;35.20;63.30;;;;;;4923191;28;20655;-57
2020/12/15 08:29:13;;;;;;;7.20;6.60;;;35.10;63.70;;;;;;4942286;28;20328;-57
2020/12/15 08:31:44;;;;;;;10.00;9.05;;;34.90;63.80;;;;;;4942191;28;20339;-54
2020/12/15 08:34:16;;;;;;;13.48;9.77;;;34.80;64.90;;;;;;4949134;28;22262;-52
2020/12/15 08:36:48;;;;;;;10.10;8.93;;;34.70;65.80;;;;;;4941849;28;20233;-60
2020/12/15 08:39:20;;;;;;;9.38;8.35;;;34.60;66.10;;;;;;4930538;28;20697;-55
2020/12/15 08:41:53;;;;;;;12.70;10.18;;;34.50;66.20;;;;;;4944822;28;20240;-58
2020/12/15 08:44:24;;;;;;;16.23;14.63;;;34.30;64.90;;;;;;4935465;28;20253;-58
2020/12/15 08:46:55;;;;;;;16.75;14.90;;;34.20;65.50;;;;;;4939315;28;20241;-58
2020/12/15 08:49:27;;;;;;;12.10;11.00;;;34.00;66.20;;;;;;4940682;28;20401;-57
2020/12/15 08:51:57;;;;;;;11.25;10.15;;;34.00;66.30;;;;;;4974579;28;20230;-56
2020/12/15 08:54:28;;;;;;;9.45;8.65;;;33.80;66.40;;;;;;5069070;28;20248;-58
2020/12/15 08:57:00;;;;;;;8.23;7.43;;;33.70;67.00;;;;;;5063167;28;20610;-55
2020/12/15 08:59:35;;;;;;;7.57;6.97;;;33.70;67.70;;;;;;5061691;28;20221;-56
2020/12/15 09:02:06;;;;;;;9.73;8.65;;;33.60;67.40;;;;;;5064271;28;20320;-58
2020/12/15 09:04:37;;;;;;;9.40;8.57;;;33.60;67.60;;;;;;5056055;28;20237;-56
2020/12/15 09:07:17;;;;;;;9.32;8.43;;;33.60;67.70;;;;;;5058087;28;20604;-56
2020/12/15 09:09:48;;;;;;;9.20;8.30;;;33.50;69.10;;;;;;5052887;28;20646;-55
2020/12/15 09:12:20;;;;;;;17.75;14.05;;;33.50;69.00;;;;;;5068276;28;20233;-56
2020/12/15 09:14:50;;;;;;;13.05;11.85;;;33.50;68.40;;;;;;5066828;28;20237;-58
2020/12/15 09:17:25;;;;;;;12.10;11.00;;;33.50;68.80;;;;;;5057055;28;20272;-57
2020/12/15 09:19:55;;;;;;;10.20;9.25;;;33.50;68.80;;;;;;5058986;28;20229;-59
2020/12/15 09:22:26;;;;;;;10.27;9.38;;;33.50;68.70;;;;;;5060667;28;20264;-58
2020/12/15 09:25:01;;;;;;;13.55;12.25;;;33.50;68.80;;;;;;5058996;28;20229;-57
2020/12/15 09:27:33;;;;;;;13.52;12.15;;;33.40;68.40;;;;;;5050896;28;21336;-55
2020/12/15 09:30:04;;;;;;;12.68;11.57;;;33.40;68.50;;;;;;5061324;28;20234;-55
2020/12/15 09:32:37;;;;;;;18.88;16.90;;;33.30;68.50;;;;;;5060099;28;20328;-58
2020/12/15 09:35:07;;;;;;;25.73;23.02;;;33.30;69.00;;;;;;5051118;28;20245;-58
2020/12/15 09:37:38;;;;;;;17.30;15.70;;;33.20;69.20;;;;;;5058372;28;20233;-58
2020/12/15 09:40:09;;;;;;;14.18;12.75;;;33.20;69.40;;;;;;5057579;28;20261;-57
2020/12/15 09:42:44;;;;;;;15.55;14.05;;;33.10;69.90;;;;;;5063352;28;20227;-55
2020/12/15 09:45:14;;;;;;;14.43;12.82;;;33.00;70.10;;;;;;5058218;28;20346;-57
2020/12/15 09:47:45;;;;;;;12.52;11.23;;;33.00;70.10;;;;;;5061180;28;20709;-58
2020/12/15 09:50:16;;;;;;;27.80;24.88;;;32.90;70.10;;;;;;5053590;28;20233;-56
2020/12/15 09:52:46;;;;;;;22.17;19.88;;;32.90;70.50;;;;;;5058299;28;20227;-57
2020/12/15 09:55:16;;;;;;;23.13;20.38;;;32.90;70.80;;;;;;5044074;28;20217;-55
2020/12/15 09:57:48;;;;;;;23.23;21.08;;;32.90;71.20;;;;;;5053843;28;20236;-56
2020/12/15 10:00:19;;;;;;;15.40;14.00;;;32.90;71.60;;;;;;5053186;28;20271;-58
2020/12/15 10:02:49;;;;;;;15.32;13.82;;;32.80;71.30;;;;;;5069381;28;20237;-59
2020/12/15 10:05:22;;;;;;;12.80;11.63;;;32.80;71.60;;;;;;5071367;28;20233;-59
2020/12/15 10:07:59;;;;;;;11.25;10.20;;;32.80;71.70;;;;;;5067845;28;20649;-57
2020/12/15 10:10:30;;;;;;;14.75;13.38;;;32.80;72.00;;;;;;5070749;28;20751;-59
2020/12/15 10:13:02;;;;;;;15.52;14.18;;;32.70;72.10;;;;;;5071080;28;20268;-59
2020/12/15 10:15:33;;;;;;;15.50;14.13;;;32.70;72.00;;;;;;5070823;28;20233;-59
2020/12/15 10:18:09;;;;;;;14.45;13.05;;;32.70;72.10;;;;;;5052584;28;20255;-58
2020/12/15 10:20:40;;;;;;;12.40;11.30;;;32.70;72.50;;;;;;5065378;28;20233;-57
2020/12/15 10:23:11;;;;;;;13.82;11.43;;;32.70;72.80;;;;;;5068453;28;20338;-58
2020/12/15 10:25:46;;;;;;;13.20;11.93;;;32.60;72.60;;;;;;5062084;28;20233;-58
2020/12/15 10:28:18;;;;;;;13.82;12.63;;;32.50;72.70;;;;;;5071031;28;20236;-56
2020/12/15 10:30:49;;;;;;;15.07;13.68;;;32.50;73.00;;;;;;5058530;28;20669;-58
2020/12/15 10:33:20;;;;;;;16.13;14.02;;;32.50;73.10;;;;;;5065307;28;20229;-59
2020/12/15 10:36:04;;;;;;;13.30;12.10;;;32.50;73.50;;;;;;5056227;28;20228;-58
2020/12/15 10:38:35;;;;;;;13.27;12.05;;;32.40;73.50;;;;;;5068890;28;20237;-54
2020/12/15 10:41:09;;;;;;;13.93;12.02;;;32.40;73.80;;;;;;5069423;28;20262;-57
2020/12/15 10:43:41;;;;;;;11.40;10.40;;;32.30;74.20;;;;;;5070197;28;20559;-52
2020/12/15 10:46:27;;;;;;;11.75;10.73;;;32.30;74.20;;;;;;5067598;28;20286;-53
2020/12/15 10:48:57;;;;;;;12.88;11.65;;;32.30;74.40;;;;;;5066366;28;20225;-56
2020/12/15 10:51:28;;;;;;;14.23;12.88;;;32.30;74.50;;;;;;5065711;28;20233;-54
2020/12/15 10:53:58;;;;;;;15.07;13.60;;;32.20;74.80;;;;;;5069712;28;20672;-58
2020/12/15 10:56:29;;;;;;;14.82;13.43;;;32.20;75.10;;;;;;5069175;28;20233;-57
2020/12/15 10:59:01;;;;;;;14.63;13.32;;;32.20;75.20;;;;;;5070256;28;21334;-54
2020/12/15 11:01:32;;;;;;;14.00;12.65;;;32.10;75.50;;;;;;5069560;28;20201;-57
2020/12/15 11:04:02;;;;;;;11.90;10.70;;;32.10;75.50;;;;;;5047864;28;20257;-58
2020/12/15 11:06:36;;;;;;;13.45;12.20;;;32.00;75.30;;;;;;5066219;28;20283;-54
2020/12/15 11:09:07;;;;;;;12.60;11.52;;;32.00;75.60;;;;;;5062717;28;20208;-58
2020/12/15 11:11:38;;;;;;;10.98;10.02;;;32.00;75.70;;;;;;5058515;28;20202;-55
2020/12/15 11:14:09;;;;;;;11.45;10.45;;;32.00;76.00;;;;;;5028500;28;20213;-56
2020/12/15 11:16:53;;;;;;;13.13;12.00;;;32.00;76.30;;;;;;5057610;28;21264;-57
2020/12/15 11:19:23;;;;;;;15.60;13.90;;;32.00;76.40;;;;;;5056755;28;20229;-59
2020/12/15 11:21:54;;;;;;;11.98;10.77;;;32.00;77.20;;;;;;5031615;28;20210;-59
2020/12/15 11:24:25;;;;;;;9.98;9.00;;;31.90;76.20;;;;;;5058002;28;20206;-57
2020/12/15 11:26:56;;;;;;;6.90;6.25;;;31.90;74.60;;;;;;5055772;28;20201;-59
2020/12/15 11:29:28;;;;;;;7.28;5.60;;;31.80;73.60;;;;;;5031632;28;20237;-57
2020/12/15 11:32:00;;;;;;;6.68;4.78;;;31.70;73.50;;;;;;5034633;28;20286;-57
2020/12/15 11:34:30;;;;;;;7.82;4.15;;;31.60;73.50;;;;;;5056369;28;20205;-55
2020/12/15 11:37:00;;;;;;;7.78;5.32;;;31.40;73.30;;;;;;5032378;28;20236;-57
2020/12/15 11:39:32;;;;;;;7.63;5.53;;;31.30;73.60;;;;;;5056037;28;20209;-58
2020/12/15 11:42:06;;;;;;;4.80;4.05;;;31.10;73.70;;;;;;5058189;28;20213;-56
2020/12/15 11:44:57;;;;;;;5.20;4.70;;;31.00;73.90;;;;;;5036259;28;20244;-57
2020/12/15 11:47:28;;;;;;;4.78;3.30;;;30.80;74.70;;;;;;5012666;28;20318;-55
2020/12/15 11:49:59;;;;;;;4.97;3.67;;;30.60;73.50;;;;;;5039386;28;20220;-57
2020/12/15 11:52:30;;;;;;;5.18;3.95;;;30.50;74.30;;;;;;5043114;28;20234;-57
2020/12/15 11:55:01;;;;;;;5.35;4.43;;;30.30;75.20;;;;;;5043312;28;20285;-56
2020/12/15 11:57:32;;;;;;;3.28;2.95;;;30.20;75.60;;;;;;5011598;28;20263;-56
2020/12/15 12:00:04;;;;;;;3.20;2.85;;;30.20;75.40;;;;;;5041504;28;20355;-56
2020/12/15 12:02:35;;;;;;;7.22;3.42;;;30.10;75.60;;;;;;5024509;28;20234;-56
2020/12/15 12:05:06;;;;;;;4.53;3.17;;;30.10;76.10;;;;;;5042243;28;20237;-57
2020/12/15 12:07:37;;;;;;;3.95;3.13;;;30.10;76.50;;;;;;5019524;28;20249;-55
2020/12/15 12:10:08;;;;;;;3.85;2.97;;;30.10;76.30;;;;;;5020467;28;20767;-53
2020/12/15 12:12:38;;;;;;;3.40;2.40;;;30.10;76.30;;;;;;5016288;28;20224;-57
2020/12/15 12:15:10;;;;;;;3.58;2.92;;;30.00;76.40;;;;;;5048487;28;20675;-55
2020/12/15 12:17:40;;;;;;;3.60;3.20;;;30.00;76.80;;;;;;5056807;28;20351;-52
2020/12/15 12:20:11;;;;;;;2.78;2.55;;;30.00;76.90;;;;;;5038657;28;20311;-56
2020/12/15 12:22:41;;;;;;;3.10;2.65;;;30.00;77.10;;;;;;5038822;28;20300;-57
2020/12/15 12:25:12;;;;;;;3.83;3.03;;;30.00;77.30;;;;;;5039949;28;20271;-56
2020/12/15 12:27:42;;;;;;;4.85;3.75;;;29.90;77.20;;;;;;5026678;28;20228;-56
2020/12/15 12:30:14;;;;;;;4.13;3.17;;;29.90;78.00;;;;;;5048068;28;20289;-55
2020/12/15 12:32:44;;;;;;;3.53;3.03;;;29.90;77.40;;;;;;5060638;28;20219;-58
2020/12/15 12:35:15;;;;;;;3.83;3.15;;;29.90;77.50;;;;;;5040365;28;20687;-57
2020/12/15 12:37:46;;;;;;;4.70;2.88;;;29.90;77.50;;;;;;5062570;28;20688;-60
2020/12/15 12:40:16;;;;;;;4.43;2.67;;;29.80;77.60;;;;;;4995909;28;20247;-54
2020/12/15 12:42:50;;;;;;;7.65;2.97;;;29.80;77.80;;;;;;5022502;28;20332;-53
2020/12/15 12:45:22;;;;;;;3.95;3.13;;;29.80;77.80;;;;;;5041290;28;20320;-57
2020/12/15 12:47:53;;;;;;;3.70;2.83;;;29.80;77.80;;;;;;5029836;28;20242;-52
2020/12/15 12:50:26;;;;;;;4.55;2.60;;;29.80;77.70;;;;;;5015723;28;20692;-56
2020/12/15 12:52:57;;;;;;;4.38;2.92;;;29.70;77.80;;;;;;5014586;28;20236;-51
2020/12/15 12:55:28;;;;;;;4.13;2.65;;;29.70;78.10;;;;;;5015956;28;20222;-58
2020/12/15 12:57:59;;;;;;;3.22;2.92;;;29.70;78.20;;;;;;5009226;28;20305;-56
2020/12/15 13:00:31;;;;;;;4.05;3.08;;;29.70;78.50;;;;;;5013719;28;20214;-55